Time;durP1;ratioP1;P1;durP2;ratioP2;P2;SDS_P1;SDS_P2;PMS_P1;PMS_P2;Temp;Humidity;BMP_temperature;BMP_pressure;BME280_temperature;BME280_humidity;BME280_pressure;Samples;Min_cycle;Max_cycle;Signal;HPM_P1;HPM_P2
2021/05/07 00:00:31;;;;;;;6.47;5.77;;;8.00;99.90;;;;;;5017026;28;20444;-69
2021/05/07 00:03:18;;;;;;;6.17;5.30;;;8.00;99.90;;;;;;5026592;28;20836;-72
2021/05/07 00:06:04;;;;;;;8.33;5.67;;;7.90;99.90;;;;;;5017453;28;20457;-72
2021/05/07 00:08:50;;;;;;;6.40;5.50;;;8.00;99.90;;;;;;5026954;28;20439;-72
2021/05/07 00:11:35;;;;;;;6.90;5.50;;;7.90;99.90;;;;;;5020322;28;20445;-70
2021/05/07 00:14:20;;;;;;;9.70;6.80;;;7.90;99.90;;;;;;5015807;28;20469;-72
2021/05/07 00:17:06;;;;;;;8.33;6.10;;;7.90;99.90;;;;;;5023593;28;20511;-69
2021/05/07 00:19:51;;;;;;;7.27;5.97;;;7.80;99.90;;;;;;5021379;28;20540;-70
2021/05/07 00:22:38;;;;;;;8.10;6.33;;;7.90;99.90;;;;;;5020260;28;20511;-68
2021/05/07 00:25:23;;;;;;;5.53;4.93;;;7.90;99.90;;;;;;5019607;28;20471;-71
2021/05/07 00:28:11;;;;;;;6.38;5.55;;;7.90;99.90;;;;;;5029606;28;20464;-68
2021/05/07 00:30:56;;;;;;;7.00;5.80;;;7.90;99.90;;;;;;5022721;28;20699;-72
2021/05/07 00:33:42;;;;;;;7.03;5.83;;;8.00;99.90;;;;;;5027538;28;21134;-68
2021/05/07 00:36:27;;;;;;;6.20;5.60;;;7.90;99.90;;;;;;5020954;28;20448;-70
2021/05/07 00:39:12;;;;;;;8.07;5.53;;;7.90;99.90;;;;;;5027044;28;20230;-69
2021/05/07 00:42:02;;;;;;;9.70;6.17;;;7.90;99.90;;;;;;5021277;28;20452;-71
2021/05/07 00:44:47;;;;;;;6.55;5.82;;;7.80;99.90;;;;;;5035537;23;20496;-74
2021/05/07 00:47:37;;;;;;;7.00;5.20;;;7.80;99.90;;;;;;5020018;28;20271;-74
2021/05/07 00:50:25;;;;;;;6.40;5.30;;;7.80;99.90;;;;;;5017559;28;20454;-74
2021/05/07 00:53:10;;;;;;;7.33;5.80;;;7.80;99.90;;;;;;5019153;28;20540;-74
2021/05/07 00:55:56;;;;;;;7.57;5.30;;;7.90;99.90;;;;;;5020617;28;20515;-74
2021/05/07 00:58:41;;;;;;;5.50;4.67;;;7.90;99.90;;;;;;5013084;28;20479;-74
2021/05/07 01:01:26;;;;;;;7.10;5.50;;;7.90;99.90;;;;;;5020638;28;21010;-75
2021/05/07 01:04:11;;;;;;;8.07;6.63;;;7.80;99.90;;;;;;5014964;28;20273;-74
2021/05/07 01:06:57;;;;;;;5.87;5.27;;;7.90;99.90;;;;;;5022328;28;20537;-74
2021/05/07 01:09:42;;;;;;;7.90;5.77;;;7.90;99.90;;;;;;5016061;28;20412;-74
2021/05/07 01:12:28;;;;;;;6.67;6.07;;;7.90;99.90;;;;;;5017195;28;20416;-74
2021/05/07 01:15:15;;;;;;;7.10;6.07;;;7.90;99.90;;;;;;5023533;28;20622;-74
2021/05/07 01:18:00;;;;;;;9.53;6.80;;;7.80;99.90;;;;;;5022511;28;20479;-74
2021/05/07 01:20:46;;;;;;;7.10;6.13;;;7.80;99.90;;;;;;5018105;28;20456;-74
2021/05/07 01:23:32;;;;;;;8.87;6.33;;;7.70;99.90;;;;;;5022459;28;20552;-74
2021/05/07 01:26:17;;;;;;;7.73;6.43;;;7.70;99.90;;;;;;5015772;28;20523;-74
2021/05/07 01:29:10;;;;;;;8.30;6.40;;;7.70;99.90;;;;;;5021002;28;20528;-74
2021/05/07 01:31:56;;;;;;;8.07;6.87;;;7.70;99.90;;;;;;5021389;28;20810;-74
2021/05/07 01:34:41;;;;;;;7.33;6.63;;;7.70;99.90;;;;;;5020006;28;20442;-74
2021/05/07 01:37:27;;;;;;;6.63;5.73;;;7.70;99.90;;;;;;5019617;28;20511;-74
2021/05/07 01:40:16;;;;;;;9.20;7.27;;;7.70;99.90;;;;;;5022517;28;20493;-74
2021/05/07 01:43:02;;;;;;;8.60;6.50;;;7.70;99.90;;;;;;5024190;28;21038;-74
2021/05/07 01:45:48;;;;;;;8.20;6.68;;;7.70;99.90;;;;;;5024306;28;20481;-73
2021/05/07 01:48:33;;;;;;;8.93;6.47;;;7.70;99.90;;;;;;5018507;28;20640;-74
2021/05/07 01:51:18;;;;;;;8.23;6.53;;;7.70;99.90;;;;;;5023861;28;20455;-73
2021/05/07 01:54:05;;;;;;;8.13;6.82;;;7.70;99.90;;;;;;5019582;28;20416;-73
2021/05/07 01:56:50;;;;;;;8.23;5.97;;;7.70;99.90;;;;;;5026893;28;20201;-74
2021/05/07 01:59:35;;;;;;;11.63;6.93;;;7.80;99.90;;;;;;5023304;28;20544;-74
2021/05/07 02:02:21;;;;;;;7.87;6.60;;;7.80;99.90;;;;;;5026642;28;20454;-74
2021/05/07 02:05:06;;;;;;;8.60;6.60;;;7.70;99.90;;;;;;5021989;28;20435;-74
2021/05/07 02:07:51;;;;;;;10.07;6.40;;;7.80;99.90;;;;;;5028678;28;20445;-74
2021/05/07 02:10:38;;;;;;;7.47;6.23;;;7.80;99.90;;;;;;5018979;28;20969;-74
2021/05/07 02:13:23;;;;;;;7.70;6.80;;;7.70;99.90;;;;;;5026575;28;20431;-74
2021/05/07 02:16:11;;;;;;;7.50;6.37;;;7.80;99.90;;;;;;5021534;28;20472;-74
2021/05/07 02:18:56;;;;;;;6.77;6.00;;;7.90;99.90;;;;;;5017779;28;20959;-74
2021/05/07 02:21:41;;;;;;;8.43;6.60;;;8.00;99.90;;;;;;5030209;28;20521;-74
2021/05/07 02:24:26;;;;;;;9.33;6.80;;;7.90;99.90;;;;;;5022971;28;20536;-74
2021/05/07 02:27:12;;;;;;;7.17;5.60;;;7.80;99.90;;;;;;5023053;28;20456;-74
2021/05/07 02:29:57;;;;;;;7.33;5.60;;;7.80;99.90;;;;;;5026120;28;20500;-74
2021/05/07 02:32:43;;;;;;;8.73;7.00;;;7.80;99.90;;;;;;5020462;28;20457;-74
2021/05/07 02:35:28;;;;;;;8.70;6.67;;;7.70;99.90;;;;;;5022626;28;20444;-74
2021/05/07 02:38:13;;;;;;;7.40;6.10;;;7.70;99.90;;;;;;5016805;28;20481;-74
2021/05/07 02:40:58;;;;;;;10.13;6.63;;;7.70;99.90;;;;;;5020752;28;20499;-74
2021/05/07 02:43:44;;;;;;;8.97;6.27;;;7.70;99.90;;;;;;5019948;28;20452;-74
2021/05/07 02:46:29;;;;;;;9.47;6.17;;;7.50;99.90;;;;;;5029996;28;20587;-74
2021/05/07 02:49:14;;;;;;;8.60;6.70;;;7.50;99.90;;;;;;5023568;28;20476;-74
2021/05/07 02:52:00;;;;;;;7.80;6.57;;;7.60;99.90;;;;;;5030075;28;20522;-74
2021/05/07 02:54:45;;;;;;;7.80;6.47;;;7.60;99.90;;;;;;5016109;28;20935;-74
2021/05/07 02:57:30;;;;;;;8.30;7.43;;;7.60;99.90;;;;;;5018435;28;20459;-74
2021/05/07 03:00:18;;;;;;;9.67;6.60;;;7.60;99.90;;;;;;5019062;28;20441;-74
2021/05/07 03:03:03;;;;;;;7.30;5.93;;;7.60;99.90;;;;;;5022120;28;20503;-74
2021/05/07 03:05:48;;;;;;;7.17;6.00;;;7.50;99.90;;;;;;5022722;28;20479;-74
2021/05/07 03:08:33;;;;;;;7.50;6.00;;;7.50;99.90;;;;;;5012540;28;20462;-74
2021/05/07 03:11:18;;;;;;;7.20;6.27;;;7.40;99.90;;;;;;5017530;28;20457;-74
2021/05/07 03:14:03;;;;;;;9.27;7.13;;;7.50;99.90;;;;;;5026473;28;20981;-73
2021/05/07 03:16:50;;;;;;;7.80;6.20;;;7.60;99.90;;;;;;5023809;28;20532;-74
2021/05/07 03:19:35;;;;;;;8.53;6.80;;;7.60;99.90;;;;;;5015294;28;20875;-73
2021/05/07 03:22:20;;;;;;;7.83;6.50;;;7.50;99.90;;;;;;5025893;28;20448;-74
2021/05/07 03:25:06;;;;;;;8.57;7.40;;;7.40;99.90;;;;;;5018788;28;20546;-73
2021/05/07 03:27:51;;;;;;;7.87;6.37;;;7.40;99.90;;;;;;5022428;28;20448;-74
2021/05/07 03:30:36;;;;;;;10.38;7.13;;;7.50;99.90;;;;;;5016439;28;20507;-74
2021/05/07 03:33:22;;;;;;;8.30;6.50;;;7.50;99.90;;;;;;5014828;28;20213;-74
2021/05/07 03:36:07;;;;;;;7.80;6.38;;;7.40;99.90;;;;;;5014692;28;21155;-74
2021/05/07 03:38:52;;;;;;;9.53;7.53;;;7.50;99.90;;;;;;5026291;28;20253;-74
2021/05/07 03:41:37;;;;;;;9.07;5.93;;;7.40;99.90;;;;;;5027371;28;20452;-74
2021/05/07 03:44:23;;;;;;;10.20;6.90;;;7.50;99.90;;;;;;5025484;28;20546;-74
2021/05/07 03:47:08;;;;;;;9.63;6.30;;;7.50;99.90;;;;;;5017282;28;20507;-74
2021/05/07 03:49:54;;;;;;;7.97;6.40;;;7.60;99.90;;;;;;5021658;28;20475;-74
2021/05/07 03:52:40;;;;;;;8.47;7.00;;;7.60;99.90;;;;;;5023091;28;20452;-74
2021/05/07 03:55:25;;;;;;;9.80;6.93;;;7.50;99.90;;;;;;5023386;28;20466;-74
2021/05/07 03:58:11;;;;;;;9.30;7.40;;;7.50;99.90;;;;;;5023084;28;20519;-74
2021/05/07 04:00:56;;;;;;;8.60;6.80;;;7.50;99.90;;;;;;5019645;28;20500;-74
2021/05/07 04:03:41;;;;;;;10.70;7.37;;;7.60;99.90;;;;;;5021408;28;20973;-74
2021/05/07 04:06:28;;;;;;;13.15;7.57;;;7.60;99.90;;;;;;5020316;28;20561;-74
2021/05/07 04:09:15;;;;;;;9.50;8.33;;;7.50;99.90;;;;;;5022017;28;20224;-74
2021/05/07 04:12:11;;;;;;;16.40;10.93;;;7.50;99.90;;;;;;5021521;28;20457;-74
2021/05/07 04:14:57;;;;;;;10.07;7.80;;;7.40;99.90;;;;;;5022930;28;20472;-74
2021/05/07 04:17:42;;;;;;;8.70;7.03;;;7.40;99.90;;;;;;5012790;28;20568;-74
2021/05/07 04:20:27;;;;;;;11.73;8.30;;;7.40;99.90;;;;;;5020808;28;20821;-74
2021/05/07 04:23:14;;;;;;;12.47;8.40;;;7.40;99.90;;;;;;5012908;28;20477;-74
2021/05/07 04:26:00;;;;;;;10.70;8.67;;;7.40;99.90;;;;;;5016990;28;20525;-74
2021/05/07 04:28:45;;;;;;;12.87;7.60;;;7.50;99.90;;;;;;5015634;28;20479;-74
2021/05/07 04:31:30;;;;;;;10.37;8.00;;;7.40;99.90;;;;;;5025533;28;20491;-74
2021/05/07 04:34:15;;;;;;;12.27;7.87;;;7.50;99.90;;;;;;5019914;28;20472;-73
2021/05/07 04:37:00;;;;;;;13.40;8.80;;;7.40;99.90;;;;;;5012005;28;20683;-73
2021/05/07 04:39:46;;;;;;;11.07;8.65;;;7.40;99.90;;;;;;5011234;28;20834;-74
2021/05/07 04:42:31;;;;;;;10.63;8.83;;;7.40;99.90;;;;;;5013674;28;20294;-74
2021/05/07 04:45:16;;;;;;;9.77;8.77;;;7.40;99.90;;;;;;5014819;28;20559;-73
2021/05/07 04:48:02;;;;;;;11.67;8.00;;;7.50;99.90;;;;;;5022479;28;20456;-74
2021/05/07 04:50:47;;;;;;;15.70;8.93;;;7.50;99.90;;;;;;5019840;28;20496;-74
2021/05/07 04:53:32;;;;;;;10.90;9.10;;;7.60;99.90;;;;;;5015331;28;20469;-73
2021/05/07 04:56:18;;;;;;;12.93;9.93;;;7.70;99.90;;;;;;5017908;28;20815;-73
2021/05/07 04:59:03;;;;;;;14.30;10.07;;;7.60;99.90;;;;;;5017566;28;20522;-74
2021/05/07 05:01:48;;;;;;;14.63;11.00;;;7.70;99.90;;;;;;5028361;28;20537;-74
2021/05/07 05:04:33;;;;;;;16.10;11.77;;;7.70;99.90;;;;;;5014684;28;20230;-74
2021/05/07 05:07:19;;;;;;;17.60;13.27;;;7.80;99.90;;;;;;5020482;28;20509;-74
2021/05/07 05:10:05;;;;;;;17.83;13.80;;;7.80;99.90;;;;;;5022030;28;20436;-74
2021/05/07 05:12:51;;;;;;;17.00;12.27;;;7.80;99.90;;;;;;5031898;28;20491;-73
2021/05/07 05:15:36;;;;;;;19.87;13.33;;;7.90;99.90;;;;;;5026375;28;20539;-74
2021/05/07 05:18:25;;;;;;;15.73;12.30;;;7.90;99.90;;;;;;5016077;28;20472;-73
2021/05/07 05:21:10;;;;;;;17.87;12.30;;;7.90;99.90;;;;;;5030602;28;20478;-74
2021/05/07 05:23:55;;;;;;;16.90;12.07;;;8.00;99.90;;;;;;5023698;28;21005;-74
2021/05/07 05:26:40;;;;;;;15.90;13.53;;;8.00;99.90;;;;;;5020889;28;20459;-74
2021/05/07 05:29:27;;;;;;;17.47;14.07;;;8.10;99.90;;;;;;5022316;28;20415;-74
2021/05/07 05:32:13;;;;;;;15.87;12.13;;;8.10;99.90;;;;;;5026050;28;20447;-75
2021/05/07 05:34:58;;;;;;;17.57;13.07;;;8.10;99.90;;;;;;5022366;28;20819;-76
2021/05/07 05:37:43;;;;;;;18.27;13.63;;;8.00;99.90;;;;;;5019208;28;20824;-75
2021/05/07 05:40:28;;;;;;;18.00;13.80;;;8.10;99.90;;;;;;5021572;28;20457;-76
2021/05/07 05:43:14;;;;;;;14.87;13.27;;;8.20;99.90;;;;;;5018216;28;20812;-76
2021/05/07 05:46:00;;;;;;;16.40;14.17;;;8.20;99.90;;;;;;5024756;28;20842;-76
2021/05/07 05:48:45;;;;;;;17.57;14.27;;;8.30;99.90;;;;;;5026698;28;20536;-75
2021/05/07 05:51:30;;;;;;;17.37;15.00;;;8.20;99.90;;;;;;5017035;28;20529;-75
2021/05/07 05:54:15;;;;;;;17.47;14.07;;;8.20;99.90;;;;;;5026627;28;20511;-75
2021/05/07 05:57:00;;;;;;;15.03;13.10;;;8.10;99.90;;;;;;5022667;28;20442;-75
2021/05/07 05:59:45;;;;;;;21.10;14.30;;;8.10;99.90;;;;;;5025456;28;20479;-74
2021/05/07 06:02:32;;;;;;;20.70;14.90;;;8.20;99.90;;;;;;5018008;28;20523;-74
2021/05/07 06:05:17;;;;;;;32.43;24.17;;;8.30;99.90;;;;;;5022142;28;20578;-75
2021/05/07 06:08:02;;;;;;;20.07;15.27;;;8.40;99.90;;;;;;5025669;28;20970;-75
2021/05/07 06:10:48;;;;;;;21.83;15.20;;;8.40;99.90;;;;;;5019858;28;20536;-76
2021/05/07 06:13:33;;;;;;;23.37;16.57;;;8.40;99.90;;;;;;5014978;28;20508;-75
2021/05/07 06:16:19;;;;;;;21.73;17.00;;;8.40;99.90;;;;;;5025084;28;20599;-75
2021/05/07 06:19:05;;;;;;;22.67;15.53;;;8.50;99.90;;;;;;5014015;28;20528;-76
2021/05/07 06:21:50;;;;;;;19.10;15.47;;;8.50;99.90;;;;;;5023729;28;21062;-75
2021/05/07 06:24:36;;;;;;;22.43;14.97;;;8.40;99.90;;;;;;5021852;28;20502;-75
2021/05/07 06:27:21;;;;;;;19.87;16.10;;;8.30;99.90;;;;;;5020721;28;20452;-75
2021/05/07 06:30:08;;;;;;;18.87;14.57;;;8.20;99.90;;;;;;5016055;28;20448;-74
2021/05/07 06:32:53;;;;;;;20.33;15.10;;;8.30;99.90;;;;;;5024170;28;20476;-75
2021/05/07 06:35:39;;;;;;;20.97;15.37;;;8.10;99.90;;;;;;5021252;28;20950;-75
2021/05/07 06:38:24;;;;;;;21.00;15.17;;;8.00;99.90;;;;;;5015002;28;20497;-76
2021/05/07 06:41:11;;;;;;;18.20;15.13;;;8.00;99.90;;;;;;5013405;28;20448;-75
2021/05/07 06:43:56;;;;;;;42.60;28.03;;;8.00;99.90;;;;;;5022340;28;20935;-75
2021/05/07 06:46:42;;;;;;;34.50;26.40;;;8.00;99.90;;;;;;5024033;28;20440;-75
2021/05/07 06:49:27;;;;;;;19.47;15.57;;;8.20;99.90;;;;;;5026157;28;20496;-75
2021/05/07 06:52:13;;;;;;;21.27;18.10;;;8.20;99.90;;;;;;5027479;28;20536;-75
2021/05/07 06:54:58;;;;;;;17.20;13.23;;;8.40;99.90;;;;;;5025417;28;20530;-75
2021/05/07 06:57:45;;;;;;;17.63;12.83;;;8.50;99.90;;;;;;5020350;28;20457;-75
2021/05/07 07:00:32;;;;;;;19.60;13.70;;;8.50;99.90;;;;;;5020687;28;20439;-73
2021/05/07 07:03:17;;;;;;;16.80;13.20;;;8.60;99.90;;;;;;5021654;28;20448;-73
2021/05/07 07:06:01;;;;;;;18.00;13.80;;;8.40;99.90;;;;;;5027375;28;20583;-74
2021/05/07 07:08:48;;;;;;;18.00;12.93;;;8.40;99.90;;;;;;5014702;28;20438;-75
2021/05/07 07:11:33;;;;;;;19.23;11.90;;;8.50;99.90;;;;;;5028068;28;20492;-75
2021/05/07 07:14:19;;;;;;;16.97;13.57;;;8.50;99.90;;;;;;5017878;28;20567;-75
2021/05/07 07:17:04;;;;;;;16.03;12.40;;;8.40;99.90;;;;;;5016941;28;20517;-75
2021/05/07 07:19:49;;;;;;;13.90;12.00;;;8.40;99.90;;;;;;5028099;28;20577;-75
2021/05/07 07:22:34;;;;;;;15.30;11.53;;;8.50;99.90;;;;;;5025590;28;20483;-75
2021/05/07 07:25:20;;;;;;;46.20;30.90;;;8.60;99.90;;;;;;5025217;28;20467;-75
2021/05/07 07:28:06;;;;;;;22.83;16.23;;;8.80;99.90;;;;;;5021618;28;20522;-75
2021/05/07 07:30:51;;;;;;;14.70;11.60;;;9.00;99.90;;;;;;5027618;28;20440;-75
2021/05/07 07:33:36;;;;;;;14.00;9.70;;;9.20;99.90;;;;;;5024782;28;20444;-75
2021/05/07 07:36:22;;;;;;;15.93;12.60;;;9.20;99.90;;;;;;5018633;28;21103;-75
2021/05/07 07:39:07;;;;;;;13.50;10.57;;;9.10;99.90;;;;;;5018840;28;20976;-75
2021/05/07 07:41:53;;;;;;;11.37;10.00;;;9.00;99.90;;;;;;5022717;28;20481;-75
2021/05/07 07:44:38;;;;;;;16.20;9.67;;;8.90;99.90;;;;;;5021866;28;20520;-75
2021/05/07 07:47:23;;;;;;;12.23;9.93;;;9.20;99.90;;;;;;5025872;28;20540;-75
2021/05/07 07:50:10;;;;;;;13.00;10.63;;;9.40;99.90;;;;;;5018516;28;20481;-75
2021/05/07 07:52:55;;;;;;;14.57;11.13;;;9.70;99.90;;;;;;5016162;28;20927;-75
2021/05/07 07:55:40;;;;;;;17.37;13.00;;;9.50;99.90;;;;;;5021945;28;20571;-75
2021/05/07 07:58:26;;;;;;;23.40;13.10;;;9.50;99.90;;;;;;5021325;28;20494;-75
2021/05/07 08:01:11;;;;;;;14.20;10.87;;;9.40;99.90;;;;;;5022038;28;20435;-75
2021/05/07 08:03:57;;;;;;;16.17;11.30;;;9.30;99.90;;;;;;5023376;28;20451;-75
2021/05/07 08:06:42;;;;;;;14.50;10.70;;;9.20;99.90;;;;;;5017933;28;20423;-75
2021/05/07 08:09:27;;;;;;;16.63;13.00;;;9.00;99.90;;;;;;5017940;28;20845;-75
2021/05/07 08:12:13;;;;;;;18.37;14.13;;;9.20;99.90;;;;;;5022812;28;20452;-76
2021/05/07 08:14:59;;;;;;;44.20;35.17;;;9.30;99.90;;;;;;5024895;28;20600;-75
2021/05/07 08:17:46;;;;;;;50.60;38.20;;;9.50;99.90;;;;;;5021829;28;20503;-75
2021/05/07 08:20:31;;;;;;;20.03;16.50;;;9.70;99.90;;;;;;5020012;28;20462;-75
2021/05/07 08:23:16;;;;;;;17.57;14.90;;;9.80;99.90;;;;;;5022013;28;20410;-75
2021/05/07 08:26:01;;;;;;;19.90;15.83;;;9.60;99.90;;;;;;5021333;28;21058;-75
2021/05/07 08:28:46;;;;;;;18.50;15.70;;;9.40;99.90;;;;;;5018621;28;20954;-75
2021/05/07 08:31:32;;;;;;;19.63;15.37;;;9.50;99.90;;;;;;5023229;28;20468;-75
2021/05/07 08:34:17;;;;;;;16.80;14.40;;;9.60;99.90;;;;;;5020533;28;20514;-74
2021/05/07 08:37:02;;;;;;;20.07;15.33;;;9.80;99.90;;;;;;5028279;28;20533;-75
2021/05/07 08:39:47;;;;;;;17.20;13.13;;;9.90;99.90;;;;;;5021229;28;20545;-75
2021/05/07 08:42:34;;;;;;;17.07;13.80;;;10.00;99.90;;;;;;5021122;28;20967;-74
2021/05/07 08:45:19;;;;;;;17.17;13.90;;;9.80;99.90;;;;;;5022573;28;20890;-75
2021/05/07 08:48:06;;;;;;;16.10;13.10;;;9.60;99.90;;;;;;5028722;28;20534;-76
2021/05/07 08:50:53;;;;;;;15.70;12.23;;;9.70;99.90;;;;;;5025690;28;20821;-75
2021/05/07 08:53:38;;;;;;;15.07;12.23;;;9.90;99.90;;;;;;5026515;28;20494;-76
2021/05/07 08:56:24;;;;;;;17.43;11.00;;;10.10;99.90;;;;;;5029146;28;21833;-74
2021/05/07 08:59:09;;;;;;;15.30;12.57;;;10.00;99.90;;;;;;5025125;28;20443;-74
2021/05/07 09:01:54;;;;;;;14.50;11.47;;;10.10;99.90;;;;;;5022245;28;20449;-75
2021/05/07 09:04:50;;;;;;;15.30;9.67;;;10.20;99.90;;;;;;5021052;28;20519;-74
2021/05/07 09:07:35;;;;;;;13.20;10.80;;;10.10;99.90;;;;;;5026770;28;20793;-75
2021/05/07 09:10:31;;;;;;;13.73;10.60;;;10.00;99.90;;;;;;5023452;28;20456;-75
2021/05/07 09:13:21;;;;;;;12.90;9.83;;;10.00;99.90;;;;;;5029081;28;21169;-75
2021/05/07 09:16:07;;;;;;;16.37;10.53;;;10.30;99.90;;;;;;5020439;28;20545;-75
2021/05/07 09:18:52;;;;;;;12.37;8.80;;;10.40;97.10;;;;;;5017551;28;20600;-75
2021/05/07 09:21:42;;;;;;;24.27;16.73;;;10.40;97.20;;;;;;5026938;28;20444;-75
2021/05/07 09:24:31;;;;;;;13.27;8.90;;;10.60;99.90;;;;;;5026105;28;20464;-75
2021/05/07 09:27:23;;;;;;;11.53;8.00;;;10.90;99.90;;;;;;5022254;28;20832;-75
2021/05/07 09:30:22;;;;;;;14.27;9.87;;;11.10;99.90;;;;;;5023461;28;20424;-76
2021/05/07 09:33:09;;;;;;;13.37;8.37;;;11.20;99.50;;;;;;5015015;28;20508;-75
2021/05/07 09:35:54;;;;;;;9.10;7.47;;;11.40;99.40;;;;;;5026248;28;20462;-75
2021/05/07 09:38:40;;;;;;;11.00;7.87;;;11.20;74.50;;;;;;5014295;28;20492;-75
2021/05/07 09:41:25;;;;;;;16.30;8.93;;;11.20;76.70;;;;;;5020168;28;20440;-75
2021/05/07 09:44:15;;;;;;;14.97;7.30;;;11.20;85.80;;;;;;5024456;28;20550;-75
2021/05/07 09:47:00;;;;;;;7.40;6.27;;;11.40;85.50;;;;;;5020095;28;20460;-75
2021/05/07 09:49:45;;;;;;;10.07;7.90;;;11.50;81.50;;;;;;5019335;28;20492;-76
2021/05/07 09:52:30;;;;;;;9.87;6.97;;;11.60;80.70;;;;;;5025436;28;20495;-75
2021/05/07 09:55:18;;;;;;;12.73;8.40;;;11.70;64.80;;;;;;5015549;28;20840;-74
2021/05/07 09:58:03;;;;;;;11.20;7.07;;;11.70;62.90;;;;;;5019856;28;20440;-75
2021/05/07 10:00:48;;;;;;;10.47;7.87;;;11.60;63.00;;;;;;5026193;28;20443;-75
2021/05/07 10:03:34;;;;;;;9.97;7.33;;;11.50;61.40;;;;;;5018085;28;21055;-75
2021/05/07 10:06:19;;;;;;;10.00;7.00;;;11.30;62.00;;;;;;5017579;28;20422;-74
2021/05/07 10:09:06;;;;;;;9.70;6.93;;;11.40;68.90;;;;;;5023785;28;20512;-75
2021/05/07 10:11:55;;;;;;;11.53;7.20;;;11.30;60.60;;;;;;5024369;28;20427;-75
2021/05/07 10:14:45;;;;;;;10.20;6.93;;;11.00;58.20;;;;;;5014228;28;20460;-75
2021/05/07 10:17:31;;;;;;;13.60;7.07;;;10.70;62.70;;;;;;5016627;28;20484;-75
2021/05/07 10:20:27;;;;;;;18.00;12.40;;;10.60;71.20;;;;;;5019590;28;20488;-75
2021/05/07 10:23:15;;;;;;;9.40;7.47;;;10.60;94.40;;;;;;5025458;28;21028;-75
2021/05/07 10:26:02;;;;;;;11.90;7.70;;;10.50;97.50;;;;;;5025073;28;20902;-75
2021/05/07 10:28:50;;;;;;;9.23;7.30;;;10.40;99.90;;;;;;5021479;28;20422;-75
2021/05/07 10:31:45;;;;;;;10.50;6.90;;;10.10;99.90;;;;;;5016894;28;20891;-76
2021/05/07 10:34:30;;;;;;;10.63;7.73;;;10.00;99.90;;;;;;5025073;28;20482;-75
2021/05/07 10:37:15;;;;;;;10.47;7.63;;;10.10;99.90;;;;;;5023080;28;20440;-74
2021/05/07 10:40:00;;;;;;;10.47;7.43;;;10.30;99.90;;;;;;5022504;28;20455;-76
2021/05/07 10:42:56;;;;;;;7.80;5.83;;;10.60;99.90;;;;;;5021576;28;20571;-75
2021/05/07 10:45:50;;;;;;;10.77;6.30;;;10.80;99.90;;;;;;5022127;28;20546;-75
2021/05/07 10:48:35;;;;;;;10.63;6.53;;;11.20;99.90;;;;;;5024892;28;20971;-75
2021/05/07 10:51:22;;;;;;;7.10;5.93;;;11.50;95.60;;;;;;5023587;28;20496;-76
2021/05/07 10:54:09;;;;;;;6.93;5.73;;;11.80;99.90;;;;;;5021734;28;21033;-76
2021/05/07 10:56:54;;;;;;;9.90;6.20;;;11.90;90.10;;;;;;5026222;28;20511;-77
2021/05/07 10:59:39;;;;;;;6.37;4.97;;;11.70;88.00;;;;;;5019090;28;20980;-76
2021/05/07 11:02:25;;;;;;;6.80;5.40;;;11.60;86.00;;;;;;5021618;28;20812;-76
2021/05/07 11:05:11;;;;;;;6.00;4.17;;;11.40;69.20;;;;;;5020003;28;20522;-76
2021/05/07 11:07:56;;;;;;;7.07;4.73;;;11.20;67.40;;;;;;5018518;28;20427;-76
2021/05/07 11:10:41;;;;;;;11.43;6.13;;;11.10;72.90;;;;;;5020591;28;20933;-76
2021/05/07 11:13:27;;;;;;;7.90;3.87;;;11.00;73.60;;;;;;5027575;28;20460;-76
2021/05/07 11:16:12;;;;;;;7.90;4.77;;;11.20;62.70;;;;;;5019582;28;20480;-76
2021/05/07 11:18:58;;;;;;;6.43;4.10;;;11.30;67.50;;;;;;5017185;28;20552;-77
2021/05/07 11:21:49;;;;;;;7.83;4.20;;;11.20;79.00;;;;;;5020964;28;20884;-76
2021/05/07 11:24:36;;;;;;;5.80;4.33;;;11.10;87.30;;;;;;5017144;28;20450;-76
2021/05/07 11:27:23;;;;;;;9.80;6.87;;;11.10;92.10;;;;;;5020433;28;20452;-76
2021/05/07 11:30:12;;;;;;;6.20;4.50;;;11.00;94.20;;;;;;5016756;28;20440;-75
2021/05/07 11:33:08;;;;;;;5.80;3.87;;;10.90;96.30;;;;;;5016629;28;20411;-76
2021/05/07 11:36:05;;;;;;;5.13;3.53;;;11.10;99.90;;;;;;5022279;28;20493;-77
2021/05/07 11:38:50;;;;;;;5.27;3.50;;;11.30;99.90;;;;;;5015812;28;20468;-76
2021/05/07 11:41:42;;;;;;;4.10;3.40;;;11.30;97.80;;;;;;5024068;28;20591;-76
2021/05/07 11:44:27;;;;;;;5.17;3.43;;;10.90;95.70;;;;;;5020863;28;21111;-76
2021/05/07 11:47:12;;;;;;;7.60;3.67;;;10.90;98.10;;;;;;5020470;28;20468;-75
2021/05/07 11:49:58;;;;;;;6.43;3.50;;;11.10;97.20;;;;;;5017563;28;20447;-76
2021/05/07 11:52:45;;;;;;;5.30;3.23;;;11.40;88.00;;;;;;5015322;28;20422;-76
2021/05/07 11:55:32;;;;;;;5.23;3.73;;;11.50;90.80;;;;;;5020896;28;21338;-76
2021/05/07 11:58:29;;;;;;;5.30;3.80;;;11.70;91.70;;;;;;5019989;28;20501;-76
2021/05/07 12:01:14;;;;;;;6.27;4.43;;;12.10;91.50;;;;;;5019118;28;21022;-77
2021/05/07 12:04:02;;;;;;;6.37;4.03;;;12.30;93.30;;;;;;5019646;28;20452;-75
2021/05/07 12:06:48;;;;;;;4.53;3.30;;;12.10;89.90;;;;;;5017841;28;20937;-75
2021/05/07 12:09:34;;;;;;;5.10;3.70;;;11.90;87.50;;;;;;5015850;28;20779;-75
2021/05/07 12:12:19;;;;;;;11.53;4.40;;;11.80;92.40;;;;;;5020721;28;20770;-75
2021/05/07 12:15:10;;;;;;;7.33;4.07;;;11.60;93.70;;;;;;5020529;28;20834;-76
2021/05/07 12:17:56;;;;;;;6.23;3.90;;;11.40;99.90;;;;;;5019036;28;21023;-76
2021/05/07 12:20:44;;;;;;;7.03;5.40;;;11.10;99.90;;;;;;5017272;28;20850;-75
2021/05/07 12:23:41;;;;;;;5.80;4.40;;;10.80;99.90;;;;;;5013643;28;21029;-76
2021/05/07 12:26:27;;;;;;;9.80;5.40;;;10.30;99.90;;;;;;5019742;28;20448;-76
2021/05/07 12:29:12;;;;;;;38.33;27.50;;;9.90;99.90;;;;;;5019243;28;20448;-76
2021/05/07 12:32:03;;;;;;;32.97;22.30;;;9.90;99.90;;;;;;5013901;28;20972;-75
2021/05/07 12:34:55;;;;;;;13.60;10.27;;;10.00;99.90;;;;;;5016130;28;20608;-75
2021/05/07 12:37:41;;;;;;;13.00;7.67;;;10.00;99.90;;;;;;5018072;28;20500;-75
2021/05/07 12:40:27;;;;;;;14.20;10.20;;;10.00;99.90;;;;;;5019648;28;20463;-75
2021/05/07 12:43:13;;;;;;;10.20;6.70;;;10.00;99.90;;;;;;5025205;28;20443;-76
2021/05/07 12:45:58;;;;;;;7.87;6.37;;;10.20;99.90;;;;;;5016924;28;20500;-77
2021/05/07 12:48:46;;;;;;;15.73;6.00;;;10.50;99.90;;;;;;5023199;28;20444;-77
2021/05/07 12:51:31;;;;;;;6.60;4.97;;;10.60;99.90;;;;;;5026695;28;20439;-77
2021/05/07 12:54:16;;;;;;;18.53;5.30;;;10.80;99.90;;;;;;5025375;28;20522;-77
2021/05/07 12:57:01;;;;;;;8.57;5.37;;;11.00;99.90;;;;;;5023058;28;20484;-77
2021/05/07 12:59:47;;;;;;;12.90;5.20;;;11.20;99.90;;;;;;5019448;28;20523;-77
2021/05/07 13:02:33;;;;;;;5.73;4.37;;;11.20;99.90;;;;;;5025429;28;20824;-77
2021/05/07 13:05:19;;;;;;;9.43;4.53;;;11.30;99.90;;;;;;5020000;28;20476;-77
2021/05/07 13:08:04;;;;;;;7.70;5.37;;;11.40;99.90;;;;;;5021225;28;20423;-77
2021/05/07 13:10:50;;;;;;;9.73;5.27;;;11.80;99.90;;;;;;5026476;28;20435;-78
2021/05/07 13:13:38;;;;;;;8.13;4.83;;;12.10;99.90;;;;;;5025717;28;20440;-78
2021/05/07 13:16:24;;;;;;;8.07;5.77;;;12.20;99.90;;;;;;5022725;28;20473;-78
2021/05/07 13:19:09;;;;;;;4.97;4.50;;;12.00;99.90;;;;;;5021184;28;20477;-78
2021/05/07 13:21:54;;;;;;;6.63;4.13;;;11.80;99.90;;;;;;5024391;28;20487;-78
2021/05/07 13:24:39;;;;;;;5.53;4.70;;;11.80;99.90;;;;;;5018531;28;20829;-77
2021/05/07 13:27:24;;;;;;;7.50;5.20;;;12.10;99.90;;;;;;5022163;28;20449;-77
2021/05/07 13:30:11;;;;;;;4.43;4.03;;;12.40;99.90;;;;;;5020631;28;20542;-77
2021/05/07 13:32:57;;;;;;;5.73;5.13;;;12.70;99.90;;;;;;5018427;28;20469;-78
2021/05/07 13:35:44;;;;;;;5.57;4.63;;;12.90;98.60;;;;;;5019131;28;20477;-78
2021/05/07 13:38:29;;;;;;;4.40;4.00;;;13.10;92.40;;;;;;5021835;28;20458;-78
2021/05/07 13:41:14;;;;;;;4.53;4.10;;;13.40;92.10;;;;;;5027780;28;20445;-78
2021/05/07 13:43:59;;;;;;;4.93;4.43;;;13.70;78.70;;;;;;5026510;28;20462;-77
2021/05/07 13:46:44;;;;;;;5.00;4.00;;;13.80;74.80;;;;;;5027962;28;20472;-77
2021/05/07 13:49:31;;;;;;;5.80;4.07;;;13.70;74.50;;;;;;5023517;28;20444;-77
2021/05/07 13:52:16;;;;;;;5.10;4.60;;;13.30;68.70;;;;;;5027458;28;20452;-76
2021/05/07 13:55:01;;;;;;;4.17;3.77;;;13.20;68.20;;;;;;5022360;28;20494;-77
2021/05/07 13:57:46;;;;;;;4.63;4.13;;;13.20;71.10;;;;;;5024766;28;20448;-76
2021/05/07 14:00:32;;;;;;;6.63;5.40;;;13.40;66.40;;;;;;5026947;28;20468;-77
2021/05/07 14:03:17;;;;;;;6.90;5.60;;;13.50;64.70;;;;;;5022378;28;20443;-78
2021/05/07 14:06:03;;;;;;;5.43;4.47;;;13.50;56.80;;;;;;5020120;28;20473;-77
2021/05/07 14:08:48;;;;;;;5.93;3.90;;;13.60;60.30;;;;;;5021843;28;20459;-77
2021/05/07 14:11:34;;;;;;;4.43;4.03;;;13.80;56.70;;;;;;5022214;28;20552;-77
2021/05/07 14:14:19;;;;;;;5.57;3.47;;;13.80;56.50;;;;;;5023705;28;20472;-77
2021/05/07 14:17:04;;;;;;;3.67;3.20;;;14.00;58.20;;;;;;5026285;28;20806;-75
2021/05/07 14:19:49;;;;;;;4.03;3.30;;;14.10;55.80;;;;;;5021512;28;20479;-77
2021/05/07 14:22:35;;;;;;;4.10;3.60;;;14.30;52.90;;;;;;5024024;28;20540;-77